sensor_id;sensor_type;location;lat;lon;timestamp;P1;durP1;ratioP1;P2;durP2;ratioP2
29662;SDS011;16578;53.266;7.920;2023-11-21T00:01:39;10.85;;;3.95;;
29662;SDS011;16578;53.266;7.920;2023-11-21T00:04:05;9.43;;;4.82;;
29662;SDS011;16578;53.266;7.920;2023-11-21T00:06:32;12.15;;;4.53;;
29662;SDS011;16578;53.266;7.920;2023-11-21T00:08:58;10.48;;;3.90;;
29662;SDS011;16578;53.266;7.920;2023-11-21T00:11:23;7.65;;;4.25;;
29662;SDS011;16578;53.266;7.920;2023-11-21T00:13:50;12.48;;;4.63;;
29662;SDS011;16578;53.266;7.920;2023-11-21T00:16:16;9.73;;;3.80;;
29662;SDS011;16578;53.266;7.920;2023-11-21T00:18:41;14.35;;;4.32;;
29662;SDS011;16578;53.266;7.920;2023-11-21T00:21:07;8.93;;;4.40;;
29662;SDS011;16578;53.266;7.920;2023-11-21T00:23:34;8.43;;;3.72;;
29662;SDS011;16578;53.266;7.920;2023-11-21T00:26:00;8.07;;;3.95;;
29662;SDS011;16578;53.266;7.920;2023-11-21T00:28:26;10.27;;;4.15;;
29662;SDS011;16578;53.266;7.920;2023-11-21T00:30:51;12.73;;;4.28;;
29662;SDS011;16578;53.266;7.920;2023-11-21T00:33:17;9.05;;;4.05;;
29662;SDS011;16578;53.266;7.920;2023-11-21T00:35:42;8.55;;;4.00;;
29662;SDS011;16578;53.266;7.920;2023-11-21T00:38:08;11.48;;;4.72;;
29662;SDS011;16578;53.266;7.920;2023-11-21T00:40:34;9.80;;;4.38;;
29662;SDS011;16578;53.266;7.920;2023-11-21T00:42:59;9.82;;;4.95;;
29662;SDS011;16578;53.266;7.920;2023-11-21T00:45:25;10.88;;;4.57;;
29662;SDS011;16578;53.266;7.920;2023-11-21T00:47:51;8.60;;;4.63;;
29662;SDS011;16578;53.266;7.920;2023-11-21T00:50:16;11.25;;;5.10;;
29662;SDS011;16578;53.266;7.920;2023-11-21T00:52:42;7.75;;;4.10;;
29662;SDS011;16578;53.266;7.920;2023-11-21T00:55:08;11.48;;;4.43;;
29662;SDS011;16578;53.266;7.920;2023-11-21T00:57:34;12.00;;;4.72;;
29662;SDS011;16578;53.266;7.920;2023-11-21T01:00:00;13.88;;;4.82;;
29662;SDS011;16578;53.266;7.920;2023-11-21T01:02:26;7.03;;;4.15;;
29662;SDS011;16578;53.266;7.920;2023-11-21T01:04:51;9.02;;;4.70;;
29662;SDS011;16578;53.266;7.920;2023-11-21T01:07:17;8.77;;;4.60;;
29662;SDS011;16578;53.266;7.920;2023-11-21T01:09:45;11.77;;;4.82;;
29662;SDS011;16578;53.266;7.920;2023-11-21T01:12:11;7.70;;;4.07;;
29662;SDS011;16578;53.266;7.920;2023-11-21T01:14:36;8.85;;;4.57;;
29662;SDS011;16578;53.266;7.920;2023-11-21T01:17:02;9.18;;;4.57;;
29662;SDS011;16578;53.266;7.920;2023-11-21T01:19:29;8.82;;;4.43;;
29662;SDS011;16578;53.266;7.920;2023-11-21T01:21:55;9.52;;;4.30;;
29662;SDS011;16578;53.266;7.920;2023-11-21T01:24:21;9.18;;;4.47;;
29662;SDS011;16578;53.266;7.920;2023-11-21T01:26:47;9.35;;;4.15;;
29662;SDS011;16578;53.266;7.920;2023-11-21T01:29:13;11.07;;;5.15;;
29662;SDS011;16578;53.266;7.920;2023-11-21T01:31:40;9.05;;;5.05;;
29662;SDS011;16578;53.266;7.920;2023-11-21T01:34:06;12.00;;;4.72;;
29662;SDS011;16578;53.266;7.920;2023-11-21T01:36:32;8.82;;;4.82;;
29662;SDS011;16578;53.266;7.920;2023-11-21T01:38:58;12.70;;;5.00;;
29662;SDS011;16578;53.266;7.920;2023-11-21T01:41:25;12.00;;;5.35;;
29662;SDS011;16578;53.266;7.920;2023-11-21T01:43:52;9.80;;;4.83;;
29662;SDS011;16578;53.266;7.920;2023-11-21T01:46:18;10.35;;;4.78;;
29662;SDS011;16578;53.266;7.920;2023-11-21T01:48:45;13.25;;;5.15;;
29662;SDS011;16578;53.266;7.920;2023-11-21T01:51:11;9.65;;;5.32;;
29662;SDS011;16578;53.266;7.920;2023-11-21T01:53:37;12.45;;;4.75;;
29662;SDS011;16578;53.266;7.920;2023-11-21T01:56:04;11.98;;;5.00;;
29662;SDS011;16578;53.266;7.920;2023-11-21T01:58:32;10.43;;;5.45;;
29662;SDS011;16578;53.266;7.920;2023-11-21T02:00:58;9.55;;;4.88;;
29662;SDS011;16578;53.266;7.920;2023-11-21T02:03:23;10.13;;;4.63;;
29662;SDS011;16578;53.266;7.920;2023-11-21T02:05:51;7.28;;;4.43;;
29662;SDS011;16578;53.266;7.920;2023-11-21T02:08:18;8.48;;;4.85;;
29662;SDS011;16578;53.266;7.920;2023-11-21T02:10:44;12.63;;;5.00;;
29662;SDS011;16578;53.266;7.920;2023-11-21T02:13:10;9.43;;;5.10;;
29662;SDS011;16578;53.266;7.920;2023-11-21T02:15:36;9.27;;;4.78;;
29662;SDS011;16578;53.266;7.920;2023-11-21T02:18:03;8.77;;;4.38;;
29662;SDS011;16578;53.266;7.920;2023-11-21T02:20:30;8.07;;;4.80;;
29662;SDS011;16578;53.266;7.920;2023-11-21T02:23:00;8.07;;;4.93;;
29662;SDS011;16578;53.266;7.920;2023-11-21T02:25:26;11.10;;;5.82;;
29662;SDS011;16578;53.266;7.920;2023-11-21T02:27:57;11.32;;;4.75;;
29662;SDS011;16578;53.266;7.920;2023-11-21T02:30:23;10.93;;;4.50;;
29662;SDS011;16578;53.266;7.920;2023-11-21T02:32:58;7.07;;;4.50;;
29662;SDS011;16578;53.266;7.920;2023-11-21T02:35:25;12.77;;;5.50;;
29662;SDS011;16578;53.266;7.920;2023-11-21T02:37:51;11.68;;;5.68;;
29662;SDS011;16578;53.266;7.920;2023-11-21T02:40:17;6.50;;;4.78;;
29662;SDS011;16578;53.266;7.920;2023-11-21T02:42:43;17.42;;;5.90;;
29662;SDS011;16578;53.266;7.920;2023-11-21T02:45:09;5.88;;;4.68;;
29662;SDS011;16578;53.266;7.920;2023-11-21T02:47:38;9.85;;;5.82;;
29662;SDS011;16578;53.266;7.920;2023-11-21T02:50:04;9.80;;;5.18;;
29662;SDS011;16578;53.266;7.920;2023-11-21T02:52:31;11.55;;;5.32;;
29662;SDS011;16578;53.266;7.920;2023-11-21T02:54:58;8.10;;;5.18;;
29662;SDS011;16578;53.266;7.920;2023-11-21T02:57:23;10.68;;;5.80;;
29662;SDS011;16578;53.266;7.920;2023-11-21T02:59:49;8.82;;;4.88;;
29662;SDS011;16578;53.266;7.920;2023-11-21T03:02:15;8.27;;;5.15;;
29662;SDS011;16578;53.266;7.920;2023-11-21T03:04:41;10.27;;;5.20;;
29662;SDS011;16578;53.266;7.920;2023-11-21T03:07:07;8.98;;;5.53;;
29662;SDS011;16578;53.266;7.920;2023-11-21T03:09:34;10.55;;;5.47;;
29662;SDS011;16578;53.266;7.920;2023-11-21T03:12:00;10.95;;;5.45;;
29662;SDS011;16578;53.266;7.920;2023-11-21T03:14:25;11.23;;;5.20;;
29662;SDS011;16578;53.266;7.920;2023-11-21T03:16:51;9.65;;;5.03;;
29662;SDS011;16578;53.266;7.920;2023-11-21T03:19:16;11.02;;;5.75;;
29662;SDS011;16578;53.266;7.920;2023-11-21T03:21:42;8.10;;;5.78;;
29662;SDS011;16578;53.266;7.920;2023-11-21T03:24:07;10.68;;;5.68;;
29662;SDS011;16578;53.266;7.920;2023-11-21T03:26:33;11.40;;;5.80;;
29662;SDS011;16578;53.266;7.920;2023-11-21T03:28:59;10.65;;;5.95;;
29662;SDS011;16578;53.266;7.920;2023-11-21T03:31:24;14.23;;;7.75;;
29662;SDS011;16578;53.266;7.920;2023-11-21T03:33:50;17.70;;;8.90;;
29662;SDS011;16578;53.266;7.920;2023-11-21T03:36:15;15.60;;;9.80;;
29662;SDS011;16578;53.266;7.920;2023-11-21T03:38:43;16.30;;;9.68;;
29662;SDS011;16578;53.266;7.920;2023-11-21T03:41:08;14.73;;;9.55;;
29662;SDS011;16578;53.266;7.920;2023-11-21T03:43:37;19.30;;;10.18;;
29662;SDS011;16578;53.266;7.920;2023-11-21T03:46:03;23.13;;;11.18;;
29662;SDS011;16578;53.266;7.920;2023-11-21T03:48:29;14.80;;;9.60;;
29662;SDS011;16578;53.266;7.920;2023-11-21T03:50:54;15.70;;;10.07;;
29662;SDS011;16578;53.266;7.920;2023-11-21T03:53:20;14.73;;;9.88;;
29662;SDS011;16578;53.266;7.920;2023-11-21T03:55:46;18.85;;;10.95;;
29662;SDS011;16578;53.266;7.920;2023-11-21T03:58:11;17.55;;;9.85;;
29662;SDS011;16578;53.266;7.920;2023-11-21T04:00:37;18.45;;;11.60;;
29662;SDS011;16578;53.266;7.920;2023-11-21T04:03:03;21.92;;;12.32;;
29662;SDS011;16578;53.266;7.920;2023-11-21T04:05:28;20.58;;;13.13;;
29662;SDS011;16578;53.266;7.920;2023-11-21T04:07:54;20.65;;;13.20;;
29662;SDS011;16578;53.266;7.920;2023-11-21T04:10:19;21.45;;;13.27;;
29662;SDS011;16578;53.266;7.920;2023-11-21T04:12:45;23.30;;;13.70;;
29662;SDS011;16578;53.266;7.920;2023-11-21T04:15:10;20.95;;;13.50;;
29662;SDS011;16578;53.266;7.920;2023-11-21T04:17:38;21.08;;;13.57;;
29662;SDS011;16578;53.266;7.920;2023-11-21T04:20:04;18.98;;;13.10;;
29662;SDS011;16578;53.266;7.920;2023-11-21T04:22:38;19.25;;;11.75;;
29662;SDS011;16578;53.266;7.920;2023-11-21T04:25:11;17.33;;;11.40;;
29662;SDS011;16578;53.266;7.920;2023-11-21T04:27:39;21.97;;;12.10;;
29662;SDS011;16578;53.266;7.920;2023-11-21T04:30:06;20.33;;;12.02;;
29662;SDS011;16578;53.266;7.920;2023-11-21T04:32:32;21.38;;;11.60;;
29662;SDS011;16578;53.266;7.920;2023-11-21T04:34:58;20.35;;;13.02;;
29662;SDS011;16578;53.266;7.920;2023-11-21T04:37:23;21.48;;;12.27;;
29662;SDS011;16578;53.266;7.920;2023-11-21T04:39:49;21.33;;;12.57;;
29662;SDS011;16578;53.266;7.920;2023-11-21T04:42:15;23.10;;;14.32;;
29662;SDS011;16578;53.266;7.920;2023-11-21T04:44:40;19.67;;;12.40;;
29662;SDS011;16578;53.266;7.920;2023-11-21T04:47:06;20.58;;;13.35;;
29662;SDS011;16578;53.266;7.920;2023-11-21T04:49:32;17.42;;;12.63;;
29662;SDS011;16578;53.266;7.920;2023-11-21T04:51:59;17.85;;;12.93;;
29662;SDS011;16578;53.266;7.920;2023-11-21T04:54:24;19.00;;;13.75;;
29662;SDS011;16578;53.266;7.920;2023-11-21T04:56:50;18.30;;;13.10;;
29662;SDS011;16578;53.266;7.920;2023-11-21T04:59:15;18.40;;;12.27;;
29662;SDS011;16578;53.266;7.920;2023-11-21T05:01:41;17.70;;;11.73;;
29662;SDS011;16578;53.266;7.920;2023-11-21T05:04:06;17.73;;;13.35;;
29662;SDS011;16578;53.266;7.920;2023-11-21T05:06:33;18.80;;;13.88;;
29662;SDS011;16578;53.266;7.920;2023-11-21T05:08:59;16.90;;;12.25;;
29662;SDS011;16578;53.266;7.920;2023-11-21T05:11:25;17.00;;;11.95;;
29662;SDS011;16578;53.266;7.920;2023-11-21T05:13:52;17.10;;;13.05;;
29662;SDS011;16578;53.266;7.920;2023-11-21T05:16:18;19.63;;;14.00;;
29662;SDS011;16578;53.266;7.920;2023-11-21T05:18:44;18.90;;;13.02;;
29662;SDS011;16578;53.266;7.920;2023-11-21T05:21:10;18.65;;;13.40;;
29662;SDS011;16578;53.266;7.920;2023-11-21T05:23:35;22.55;;;13.90;;
29662;SDS011;16578;53.266;7.920;2023-11-21T05:26:02;21.23;;;14.07;;
29662;SDS011;16578;53.266;7.920;2023-11-21T05:28:28;22.88;;;15.70;;
29662;SDS011;16578;53.266;7.920;2023-11-21T05:30:53;20.52;;;15.45;;
29662;SDS011;16578;53.266;7.920;2023-11-21T05:33:19;21.85;;;14.70;;
29662;SDS011;16578;53.266;7.920;2023-11-21T05:35:45;20.00;;;13.18;;
29662;SDS011;16578;53.266;7.920;2023-11-21T05:38:11;20.92;;;15.88;;
29662;SDS011;16578;53.266;7.920;2023-11-21T05:40:36;18.55;;;14.77;;
29662;SDS011;16578;53.266;7.920;2023-11-21T05:43:02;20.60;;;15.15;;
29662;SDS011;16578;53.266;7.920;2023-11-21T05:45:28;21.73;;;15.55;;
29662;SDS011;16578;53.266;7.920;2023-11-21T05:47:54;21.60;;;15.00;;
29662;SDS011;16578;53.266;7.920;2023-11-21T05:50:20;21.38;;;14.90;;
29662;SDS011;16578;53.266;7.920;2023-11-21T05:52:47;19.33;;;14.27;;
29662;SDS011;16578;53.266;7.920;2023-11-21T05:55:13;20.77;;;13.65;;
29662;SDS011;16578;53.266;7.920;2023-11-21T05:57:39;19.90;;;14.13;;
29662;SDS011;16578;53.266;7.920;2023-11-21T06:00:06;20.48;;;13.68;;
29662;SDS011;16578;53.266;7.920;2023-11-21T06:02:46;18.10;;;13.68;;
29662;SDS011;16578;53.266;7.920;2023-11-21T06:05:12;20.92;;;14.13;;
29662;SDS011;16578;53.266;7.920;2023-11-21T06:07:37;22.00;;;15.52;;
29662;SDS011;16578;53.266;7.920;2023-11-21T06:10:04;18.95;;;13.20;;
29662;SDS011;16578;53.266;7.920;2023-11-21T06:12:37;18.75;;;12.80;;
29662;SDS011;16578;53.266;7.920;2023-11-21T06:15:05;21.13;;;14.68;;
29662;SDS011;16578;53.266;7.920;2023-11-21T06:17:33;17.70;;;13.15;;
29662;SDS011;16578;53.266;7.920;2023-11-21T06:20:01;19.70;;;12.70;;
29662;SDS011;16578;53.266;7.920;2023-11-21T06:22:33;18.15;;;13.20;;
29662;SDS011;16578;53.266;7.920;2023-11-21T06:25:02;17.33;;;12.93;;
29662;SDS011;16578;53.266;7.920;2023-11-21T06:27:34;17.00;;;12.70;;
29662;SDS011;16578;53.266;7.920;2023-11-21T06:30:03;17.58;;;12.80;;
29662;SDS011;16578;53.266;7.920;2023-11-21T06:32:29;20.20;;;13.07;;
29662;SDS011;16578;53.266;7.920;2023-11-21T06:34:56;20.08;;;13.10;;
29662;SDS011;16578;53.266;7.920;2023-11-21T06:37:24;15.20;;;11.30;;
29662;SDS011;16578;53.266;7.920;2023-11-21T06:39:50;15.02;;;10.93;;
29662;SDS011;16578;53.266;7.920;2023-11-21T06:42:17;18.73;;;11.95;;
29662;SDS011;16578;53.266;7.920;2023-11-21T06:44:44;16.23;;;11.50;;
29662;SDS011;16578;53.266;7.920;2023-11-21T06:47:10;18.02;;;12.68;;
29662;SDS011;16578;53.266;7.920;2023-11-21T06:49:36;17.38;;;12.35;;
29662;SDS011;16578;53.266;7.920;2023-11-21T06:52:03;17.98;;;12.05;;
29662;SDS011;16578;53.266;7.920;2023-11-21T06:54:30;17.38;;;11.93;;
29662;SDS011;16578;53.266;7.920;2023-11-21T06:56:56;16.80;;;12.50;;
29662;SDS011;16578;53.266;7.920;2023-11-21T06:59:21;16.00;;;11.85;;
29662;SDS011;16578;53.266;7.920;2023-11-21T07:01:47;16.55;;;11.63;;
29662;SDS011;16578;53.266;7.920;2023-11-21T07:04:12;15.40;;;11.18;;
29662;SDS011;16578;53.266;7.920;2023-11-21T07:06:38;15.52;;;10.57;;
29662;SDS011;16578;53.266;7.920;2023-11-21T07:09:04;16.00;;;10.88;;
29662;SDS011;16578;53.266;7.920;2023-11-21T07:11:29;15.70;;;11.60;;
29662;SDS011;16578;53.266;7.920;2023-11-21T07:13:55;12.60;;;9.20;;
29662;SDS011;16578;53.266;7.920;2023-11-21T07:16:21;15.75;;;10.88;;
29662;SDS011;16578;53.266;7.920;2023-11-21T07:18:47;12.77;;;9.35;;
29662;SDS011;16578;53.266;7.920;2023-11-21T07:21:14;12.98;;;9.20;;
29662;SDS011;16578;53.266;7.920;2023-11-21T07:23:40;14.63;;;9.90;;
29662;SDS011;16578;53.266;7.920;2023-11-21T07:26:06;13.15;;;9.70;;
29662;SDS011;16578;53.266;7.920;2023-11-21T07:28:34;12.15;;;9.30;;
29662;SDS011;16578;53.266;7.920;2023-11-21T07:31:00;13.68;;;9.95;;
29662;SDS011;16578;53.266;7.920;2023-11-21T07:33:26;14.43;;;9.40;;
29662;SDS011;16578;53.266;7.920;2023-11-21T07:35:52;13.15;;;9.57;;
29662;SDS011;16578;53.266;7.920;2023-11-21T07:38:17;13.25;;;9.35;;
29662;SDS011;16578;53.266;7.920;2023-11-21T07:40:43;14.52;;;10.13;;
29662;SDS011;16578;53.266;7.920;2023-11-21T07:43:08;11.88;;;8.98;;
29662;SDS011;16578;53.266;7.920;2023-11-21T07:45:35;14.20;;;9.75;;
29662;SDS011;16578;53.266;7.920;2023-11-21T07:48:01;13.20;;;9.98;;
29662;SDS011;16578;53.266;7.920;2023-11-21T07:50:28;13.90;;;10.05;;
29662;SDS011;16578;53.266;7.920;2023-11-21T07:52:54;12.95;;;10.07;;
29662;SDS011;16578;53.266;7.920;2023-11-21T07:55:20;14.80;;;10.18;;
29662;SDS011;16578;53.266;7.920;2023-11-21T07:57:46;14.57;;;9.52;;
29662;SDS011;16578;53.266;7.920;2023-11-21T08:00:11;12.18;;;9.20;;
29662;SDS011;16578;53.266;7.920;2023-11-21T08:02:38;12.90;;;8.80;;
29662;SDS011;16578;53.266;7.920;2023-11-21T08:05:07;15.95;;;9.65;;
29662;SDS011;16578;53.266;7.920;2023-11-21T08:07:33;13.57;;;9.20;;
29662;SDS011;16578;53.266;7.920;2023-11-21T08:09:58;11.82;;;8.52;;
29662;SDS011;16578;53.266;7.920;2023-11-21T08:12:24;12.10;;;9.00;;
29662;SDS011;16578;53.266;7.920;2023-11-21T08:14:51;11.05;;;8.70;;
29662;SDS011;16578;53.266;7.920;2023-11-21T08:17:16;12.07;;;8.50;;
29662;SDS011;16578;53.266;7.920;2023-11-21T08:19:44;14.10;;;10.55;;
29662;SDS011;16578;53.266;7.920;2023-11-21T08:22:14;13.10;;;9.65;;
29662;SDS011;16578;53.266;7.920;2023-11-21T08:24:43;12.00;;;8.75;;
29662;SDS011;16578;53.266;7.920;2023-11-21T08:27:09;13.55;;;9.57;;
29662;SDS011;16578;53.266;7.920;2023-11-21T08:29:35;11.15;;;8.55;;
29662;SDS011;16578;53.266;7.920;2023-11-21T08:32:01;13.15;;;8.70;;
29662;SDS011;16578;53.266;7.920;2023-11-21T08:34:27;12.38;;;9.02;;
29662;SDS011;16578;53.266;7.920;2023-11-21T08:36:53;13.52;;;9.45;;
29662;SDS011;16578;53.266;7.920;2023-11-21T08:39:20;11.70;;;8.98;;
29662;SDS011;16578;53.266;7.920;2023-11-21T08:44:15;15.27;;;8.75;;
29662;SDS011;16578;53.266;7.920;2023-11-21T08:46:43;13.50;;;9.40;;
29662;SDS011;16578;53.266;7.920;2023-11-21T08:49:10;11.02;;;8.48;;
29662;SDS011;16578;53.266;7.920;2023-11-21T08:51:36;12.02;;;8.73;;
29662;SDS011;16578;53.266;7.920;2023-11-21T08:54:02;13.10;;;9.07;;
29662;SDS011;16578;53.266;7.920;2023-11-21T08:56:29;12.85;;;8.45;;
29662;SDS011;16578;53.266;7.920;2023-11-21T08:58:55;12.05;;;9.73;;
29662;SDS011;16578;53.266;7.920;2023-11-21T09:01:22;14.75;;;8.65;;
29662;SDS011;16578;53.266;7.920;2023-11-21T09:03:48;13.20;;;10.07;;
29662;SDS011;16578;53.266;7.920;2023-11-21T09:06:15;12.18;;;9.43;;
29662;SDS011;16578;53.266;7.920;2023-11-21T09:08:40;13.52;;;8.98;;
29662;SDS011;16578;53.266;7.920;2023-11-21T09:11:07;12.20;;;9.70;;
29662;SDS011;16578;53.266;7.920;2023-11-21T09:13:33;12.60;;;8.77;;
29662;SDS011;16578;53.266;7.920;2023-11-21T09:15:59;11.55;;;8.18;;
29662;SDS011;16578;53.266;7.920;2023-11-21T09:18:25;10.60;;;8.32;;
29662;SDS011;16578;53.266;7.920;2023-11-21T09:20:50;13.00;;;8.65;;
29662;SDS011;16578;53.266;7.920;2023-11-21T09:23:16;12.32;;;9.20;;
29662;SDS011;16578;53.266;7.920;2023-11-21T09:25:41;13.02;;;9.07;;
29662;SDS011;16578;53.266;7.920;2023-11-21T09:28:11;13.48;;;9.93;;
29662;SDS011;16578;53.266;7.920;2023-11-21T09:30:37;11.80;;;8.63;;
29662;SDS011;16578;53.266;7.920;2023-11-21T09:33:03;10.52;;;8.32;;
29662;SDS011;16578;53.266;7.920;2023-11-21T09:35:33;11.73;;;8.48;;
29662;SDS011;16578;53.266;7.920;2023-11-21T09:37:59;11.90;;;8.43;;
29662;SDS011;16578;53.266;7.920;2023-11-21T09:40:26;12.63;;;7.85;;
29662;SDS011;16578;53.266;7.920;2023-11-21T09:42:54;13.25;;;8.80;;
29662;SDS011;16578;53.266;7.920;2023-11-21T09:45:24;13.73;;;8.95;;
29662;SDS011;16578;53.266;7.920;2023-11-21T09:47:54;12.55;;;8.27;;
29662;SDS011;16578;53.266;7.920;2023-11-21T09:50:20;10.07;;;8.15;;
29662;SDS011;16578;53.266;7.920;2023-11-21T09:55:23;13.77;;;9.13;;
29662;SDS011;16578;53.266;7.920;2023-11-21T09:57:53;11.02;;;7.80;;
29662;SDS011;16578;53.266;7.920;2023-11-21T10:00:20;11.80;;;8.73;;
29662;SDS011;16578;53.266;7.920;2023-11-21T10:02:48;12.07;;;8.63;;
29662;SDS011;16578;53.266;7.920;2023-11-21T10:05:14;11.65;;;8.60;;
29662;SDS011;16578;53.266;7.920;2023-11-21T10:07:42;12.20;;;8.48;;
29662;SDS011;16578;53.266;7.920;2023-11-21T10:10:10;14.13;;;9.30;;
29662;SDS011;16578;53.266;7.920;2023-11-21T10:12:35;13.90;;;9.38;;
29662;SDS011;16578;53.266;7.920;2023-11-21T10:15:03;12.47;;;9.13;;
29662;SDS011;16578;53.266;7.920;2023-11-21T10:17:32;12.80;;;9.15;;
29662;SDS011;16578;53.266;7.920;2023-11-21T10:20:07;12.63;;;9.50;;
29662;SDS011;16578;53.266;7.920;2023-11-21T10:22:37;13.98;;;8.57;;
29662;SDS011;16578;53.266;7.920;2023-11-21T10:25:03;12.07;;;8.20;;
29662;SDS011;16578;53.266;7.920;2023-11-21T10:27:33;14.00;;;9.05;;
29662;SDS011;16578;53.266;7.920;2023-11-21T10:30:00;12.73;;;9.05;;
29662;SDS011;16578;53.266;7.920;2023-11-21T10:32:28;12.85;;;9.48;;
29662;SDS011;16578;53.266;7.920;2023-11-21T10:34:57;13.60;;;10.02;;
29662;SDS011;16578;53.266;7.920;2023-11-21T10:37:25;13.63;;;8.57;;
29662;SDS011;16578;53.266;7.920;2023-11-21T10:39:56;12.20;;;8.80;;
29662;SDS011;16578;53.266;7.920;2023-11-21T10:42:23;11.75;;;9.32;;
29662;SDS011;16578;53.266;7.920;2023-11-21T10:44:49;12.82;;;9.23;;
29662;SDS011;16578;53.266;7.920;2023-11-21T10:47:15;14.20;;;9.85;;
29662;SDS011;16578;53.266;7.920;2023-11-21T10:49:44;11.43;;;8.82;;
29662;SDS011;16578;53.266;7.920;2023-11-21T10:54:42;14.27;;;9.63;;
29662;SDS011;16578;53.266;7.920;2023-11-21T10:57:08;11.10;;;8.15;;
29662;SDS011;16578;53.266;7.920;2023-11-21T10:59:35;9.73;;;7.72;;
29662;SDS011;16578;53.266;7.920;2023-11-21T11:02:01;11.25;;;8.80;;
29662;SDS011;16578;53.266;7.920;2023-11-21T11:04:47;12.25;;;8.63;;
29662;SDS011;16578;53.266;7.920;2023-11-21T11:07:13;11.77;;;9.10;;
29662;SDS011;16578;53.266;7.920;2023-11-21T11:09:41;12.48;;;8.25;;
29662;SDS011;16578;53.266;7.920;2023-11-21T11:12:06;9.73;;;7.25;;
29662;SDS011;16578;53.266;7.920;2023-11-21T11:14:35;12.02;;;8.55;;
29662;SDS011;16578;53.266;7.920;2023-11-21T11:17:01;11.50;;;7.88;;
29662;SDS011;16578;53.266;7.920;2023-11-21T11:19:28;14.38;;;8.70;;
29662;SDS011;16578;53.266;7.920;2023-11-21T11:27:30;10.13;;;7.22;;
29662;SDS011;16578;53.266;7.920;2023-11-21T11:30:19;11.65;;;8.13;;
29662;SDS011;16578;53.266;7.920;2023-11-21T11:36:03;9.30;;;6.85;;
29662;SDS011;16578;53.266;7.920;2023-11-21T11:38:38;8.95;;;6.18;;
29662;SDS011;16578;53.266;7.920;2023-11-21T11:41:04;11.57;;;7.97;;
29662;SDS011;16578;53.266;7.920;2023-11-21T11:43:32;6.88;;;5.75;;
29662;SDS011;16578;53.266;7.920;2023-11-21T11:45:58;8.90;;;7.07;;
29662;SDS011;16578;53.266;7.920;2023-11-21T11:48:24;9.95;;;8.23;;
29662;SDS011;16578;53.266;7.920;2023-11-21T11:53:46;9.32;;;7.90;;
29662;SDS011;16578;53.266;7.920;2023-11-21T11:58:50;9.70;;;7.57;;
29662;SDS011;16578;53.266;7.920;2023-11-21T12:01:21;10.18;;;7.93;;
29662;SDS011;16578;53.266;7.920;2023-11-21T12:04:32;8.98;;;7.90;;
29662;SDS011;16578;53.266;7.920;2023-11-21T12:06:39;8.88;;;7.30;;
29662;SDS011;16578;53.266;7.920;2023-11-21T12:11:48;8.30;;;6.88;;
29662;SDS011;16578;53.266;7.920;2023-11-21T12:14:15;9.70;;;7.15;;
29662;SDS011;16578;53.266;7.920;2023-11-21T12:16:41;9.55;;;7.63;;
29662;SDS011;16578;53.266;7.920;2023-11-21T12:19:11;9.60;;;7.53;;
29662;SDS011;16578;53.266;7.920;2023-11-21T12:21:37;10.65;;;7.38;;
29662;SDS011;16578;53.266;7.920;2023-11-21T12:24:03;10.20;;;7.50;;
29662;SDS011;16578;53.266;7.920;2023-11-21T12:26:29;9.50;;;7.00;;
29662;SDS011;16578;53.266;7.920;2023-11-21T12:28:54;13.40;;;7.20;;
29662;SDS011;16578;53.266;7.920;2023-11-21T12:31:23;7.22;;;6.25;;
29662;SDS011;16578;53.266;7.920;2023-11-21T12:33:49;6.93;;;6.22;;
29662;SDS011;16578;53.266;7.920;2023-11-21T12:36:15;9.43;;;6.05;;
29662;SDS011;16578;53.266;7.920;2023-11-21T12:38:41;8.68;;;6.18;;
29662;SDS011;16578;53.266;7.920;2023-11-21T12:41:07;9.27;;;6.68;;
29662;SDS011;16578;53.266;7.920;2023-11-21T12:43:35;8.05;;;5.60;;
29662;SDS011;16578;53.266;7.920;2023-11-21T12:46:06;11.77;;;6.53;;
29662;SDS011;16578;53.266;7.920;2023-11-21T12:48:32;7.00;;;5.85;;
29662;SDS011;16578;53.266;7.920;2023-11-21T12:50:58;12.27;;;5.88;;
29662;SDS011;16578;53.266;7.920;2023-11-21T12:53:25;6.70;;;5.75;;
29662;SDS011;16578;53.266;7.920;2023-11-21T12:55:51;5.75;;;5.10;;
29662;SDS011;16578;53.266;7.920;2023-11-21T12:58:17;7.70;;;5.25;;
29662;SDS011;16578;53.266;7.920;2023-11-21T13:00:46;7.22;;;5.20;;
29662;SDS011;16578;53.266;7.920;2023-11-21T13:03:13;7.25;;;5.45;;
29662;SDS011;16578;53.266;7.920;2023-11-21T13:05:42;7.18;;;5.35;;
29662;SDS011;16578;53.266;7.920;2023-11-21T13:08:13;6.25;;;5.45;;
29662;SDS011;16578;53.266;7.920;2023-11-21T13:10:44;5.75;;;4.78;;
29662;SDS011;16578;53.266;7.920;2023-11-21T13:13:12;8.15;;;5.40;;
29662;SDS011;16578;53.266;7.920;2023-11-21T13:15:48;9.00;;;5.72;;
29662;SDS011;16578;53.266;7.920;2023-11-21T13:18:14;7.40;;;5.35;;
29662;SDS011;16578;53.266;7.920;2023-11-21T13:20:41;8.48;;;4.97;;
29662;SDS011;16578;53.266;7.920;2023-11-21T13:23:08;6.65;;;4.57;;
29662;SDS011;16578;53.266;7.920;2023-11-21T13:25:37;8.18;;;5.13;;
29662;SDS011;16578;53.266;7.920;2023-11-21T13:28:04;8.02;;;5.38;;
29662;SDS011;16578;53.266;7.920;2023-11-21T13:30:30;7.22;;;4.50;;
29662;SDS011;16578;53.266;7.920;2023-11-21T13:32:59;5.18;;;4.50;;
29662;SDS011;16578;53.266;7.920;2023-11-21T13:35:36;8.13;;;4.68;;
29662;SDS011;16578;53.266;7.920;2023-11-21T13:40:32;8.90;;;4.82;;
29662;SDS011;16578;53.266;7.920;2023-11-21T13:43:04;7.30;;;5.18;;
29662;SDS011;16578;53.266;7.920;2023-11-21T13:45:34;6.15;;;4.88;;
29662;SDS011;16578;53.266;7.920;2023-11-21T13:48:07;5.97;;;5.13;;
29662;SDS011;16578;53.266;7.920;2023-11-21T13:50:45;4.38;;;3.65;;
29662;SDS011;16578;53.266;7.920;2023-11-21T13:53:23;6.72;;;4.57;;
29662;SDS011;16578;53.266;7.920;2023-11-21T13:55:52;5.85;;;4.20;;
29662;SDS011;16578;53.266;7.920;2023-11-21T13:58:24;6.03;;;4.78;;
29662;SDS011;16578;53.266;7.920;2023-11-21T14:01:09;6.10;;;4.00;;
29662;SDS011;16578;53.266;7.920;2023-11-21T14:03:54;7.88;;;4.75;;
29662;SDS011;16578;53.266;7.920;2023-11-21T14:06:26;6.30;;;4.13;;
29662;SDS011;16578;53.266;7.920;2023-11-21T14:08:59;6.15;;;4.65;;
29662;SDS011;16578;53.266;7.920;2023-11-21T14:11:30;6.55;;;5.30;;
29662;SDS011;16578;53.266;7.920;2023-11-21T14:13:56;6.75;;;4.75;;
29662;SDS011;16578;53.266;7.920;2023-11-21T14:16:24;6.57;;;4.80;;
29662;SDS011;16578;53.266;7.920;2023-11-21T14:18:49;6.47;;;4.57;;
29662;SDS011;16578;53.266;7.920;2023-11-21T14:21:23;5.82;;;4.80;;
29662;SDS011;16578;53.266;7.920;2023-11-21T14:23:49;5.97;;;5.05;;
29662;SDS011;16578;53.266;7.920;2023-11-21T14:26:15;7.97;;;4.97;;
29662;SDS011;16578;53.266;7.920;2023-11-21T14:28:42;5.45;;;4.80;;
29662;SDS011;16578;53.266;7.920;2023-11-21T14:31:08;7.03;;;5.10;;
29662;SDS011;16578;53.266;7.920;2023-11-21T14:33:39;12.63;;;4.93;;
29662;SDS011;16578;53.266;7.920;2023-11-21T14:36:05;4.95;;;4.45;;
29662;SDS011;16578;53.266;7.920;2023-11-21T14:40:58;6.32;;;4.82;;
29662;SDS011;16578;53.266;7.920;2023-11-21T14:43:24;6.38;;;4.20;;
29662;SDS011;16578;53.266;7.920;2023-11-21T14:45:51;7.70;;;5.05;;
29662;SDS011;16578;53.266;7.920;2023-11-21T14:48:16;6.72;;;5.05;;
29662;SDS011;16578;53.266;7.920;2023-11-21T14:50:51;5.32;;;4.50;;
29662;SDS011;16578;53.266;7.920;2023-11-21T14:53:36;6.93;;;4.90;;
29662;SDS011;16578;53.266;7.920;2023-11-21T14:56:10;6.60;;;4.70;;
29662;SDS011;16578;53.266;7.920;2023-11-21T14:58:35;7.47;;;5.10;;
29662;SDS011;16578;53.266;7.920;2023-11-21T15:01:03;7.03;;;5.70;;
29662;SDS011;16578;53.266;7.920;2023-11-21T15:03:29;6.15;;;4.95;;
29662;SDS011;16578;53.266;7.920;2023-11-21T15:05:58;6.78;;;5.60;;